Time;durP1;ratioP1;P1;durP2;ratioP2;P2;SDS_P1;SDS_P2;PMS_P1;PMS_P2;Temp;Humidity;BMP_temperature;BMP_pressure;BME280_temperature;BME280_humidity;BME280_pressure;Samples;Min_cycle;Max_cycle;Signal;HPM_P1;HPM_P2
2022/08/01 00:05:27;;;;;;;71.20;67.53;;;;;;;21.03;100.00;101787.73;2047016;69;30591;-81
2022/08/01 00:07:58;;;;;;;69.72;66.05;;;;;;;20.92;100.00;101787.00;2015833;71;24078;-81
2022/08/01 00:10:29;;;;;;;72.10;68.40;;;;;;;20.87;100.00;101790.25;1936225;73;24124;-81
2022/08/01 00:13:00;;;;;;;70.47;66.82;;;;;;;20.82;100.00;101796.05;2016635;71;24145;-81
2022/08/01 00:15:32;;;;;;;68.42;64.72;;;;;;;20.79;100.00;101795.28;2025616;70;24677;-81
2022/08/01 00:21:22;;;;;;;73.13;69.23;;;;;;;20.69;100.00;101788.56;2013697;70;30910;-81
2022/08/01 00:27:10;;;;;;;76.35;72.58;;;;;;;20.61;100.00;101790.80;2008237;71;31414;-81
2022/08/01 00:32:53;;;;;;;72.37;68.72;;;;;;;20.48;100.00;101782.47;2016874;71;31453;-83
2022/08/01 00:38:41;;;;;;;71.97;68.37;;;;;;;20.50;100.00;101782.95;2003455;71;30964;-80
2022/08/01 00:44:25;;;;;;;73.97;70.27;;;;;;;20.39;100.00;101786.11;1992073;71;30951;-80
2022/08/01 00:50:12;;;;;;;71.77;67.97;;;;;;;20.35;100.00;101789.34;2003095;71;31385;-81
2022/08/01 00:55:59;;;;;;;71.37;67.57;;;;;;;20.38;100.00;101784.45;2001245;71;30822;-80
2022/08/01 01:01:45;;;;;;;71.53;67.93;;;;;;;20.25;100.00;101790.18;2006629;71;30910;-80
2022/08/01 01:10:45;;;;;;;69.97;66.27;;;;;;;20.36;100.00;101798.64;2045984;69;30591;-81
2022/08/01 01:16:34;;;;;;;72.80;69.10;;;;;;;20.52;100.00;101804.07;2004526;71;31463;-80
2022/08/01 01:22:38;;;;;;;71.13;67.53;;;;;;;20.58;100.00;101816.05;2006703;71;30972;-79
2022/08/01 01:35:12;;;;;;;71.10;67.43;;;;;;;20.48;100.00;101811.53;2049773;69;30576;-80
2022/08/01 01:37:43;;;;;;;73.05;69.37;;;;;;;20.45;100.00;101826.31;2031511;71;24128;-80
2022/08/01 01:40:15;;;;;;;74.20;70.37;;;;;;;20.42;100.00;101817.91;2020189;70;24221;-81
2022/08/01 01:42:47;;;;;;;75.27;71.37;;;;;;;20.31;100.00;101815.72;2016328;70;24155;-81
2022/08/01 01:48:37;;;;;;;76.90;73.00;;;;;;;20.29;100.00;101809.53;2002566;71;30908;-80
2022/08/01 01:54:27;;;;;;;74.10;70.30;;;;;;;20.38;100.00;101801.38;2001379;71;31399;-79
2022/08/01 02:00:15;;;;;;;72.60;68.80;;;;;;;20.26;100.00;101798.91;2017444;71;31043;-79
2022/08/01 02:06:05;;;;;;;73.30;69.60;;;;;;;20.36;100.00;101802.87;2004828;71;30948;-79
2022/08/01 02:11:52;;;;;;;70.70;67.00;;;;;;;20.09;100.00;101791.80;2014855;71;30906;-81
2022/08/01 02:20:44;;;;;;;67.60;64.00;;;;;;;20.23;100.00;101789.70;2053282;69;30594;-82
2022/08/01 02:23:16;;;;;;;69.83;66.13;;;;;;;20.16;100.00;101795.80;1941145;73;24184;-82
2022/08/01 02:25:49;;;;;;;73.57;69.77;;;;;;;19.99;100.00;101795.16;1934452;73;24627;-81
2022/08/01 02:34:45;;;;;;;70.20;66.53;;;;;;;20.06;100.00;101789.06;2061003;69;30612;-80
2022/08/01 02:40:34;;;;;;;71.67;67.87;;;;;;;20.05;100.00;101783.73;2001201;71;31648;-79
2022/08/01 02:46:27;;;;;;;70.97;67.27;;;;;;;19.99;100.00;101773.17;2017241;71;31401;-80
2022/08/01 02:52:16;;;;;;;70.43;66.83;;;;;;;20.06;100.00;101776.37;1995797;71;31068;-79
2022/08/01 02:58:04;;;;;;;75.57;71.67;;;;;;;19.87;100.00;101772.39;2014345;71;31386;-80
2022/08/01 03:03:52;;;;;;;74.07;70.27;;;;;;;19.82;100.00;101767.47;2004964;71;30937;-80
2022/08/01 03:09:40;;;;;;;75.40;71.47;;;;;;;19.92;100.00;101775.64;2015323;71;30917;-80
2022/08/01 03:12:14;;;;;;;74.17;70.25;;;;;;;19.72;100.00;101784.11;1972951;72;24292;-80
2022/08/01 03:18:03;;;;;;;75.27;71.27;;;;;;;19.86;100.00;101781.16;1995172;71;31003;-81
2022/08/01 03:27:03;;;;;;;73.73;69.87;;;;;;;19.77;100.00;101785.93;2049526;69;30601;-80
2022/08/01 03:29:35;;;;;;;73.63;69.73;;;;;;;19.77;100.00;101792.41;1945285;73;25126;-80
2022/08/01 03:35:23;;;;;;;72.10;68.27;;;;;;;19.75;100.00;101789.66;1998813;71;31400;-80
2022/08/01 03:41:14;;;;;;;70.73;66.80;;;;;;;19.82;100.00;101780.98;1994198;71;31368;-78
2022/08/01 03:47:03;;;;;;;75.47;71.47;;;;;;;19.89;100.00;101783.36;2016456;71;30969;-77
2022/08/01 03:52:54;;;;;;;71.70;67.90;;;;;;;19.84;100.00;101779.27;1992124;71;30932;-77
2022/08/01 03:58:39;;;;;;;71.07;67.17;;;;;;;19.81;100.00;101779.31;2015184;70;30894;-78
2022/08/01 04:04:25;;;;;;;71.47;67.67;;;;;;;19.79;100.00;101787.86;2018444;71;30996;-79
2022/08/01 04:10:09;;;;;;;71.97;68.07;;;;;;;19.57;100.00;101793.55;2009382;71;31371;-77
2022/08/01 04:15:53;;;;;;;71.80;67.90;;;;;;;19.53;100.00;101793.36;2004572;71;31452;-78
2022/08/01 04:21:38;;;;;;;73.53;69.53;;;;;;;19.67;100.00;101785.66;2005717;71;31007;-78
2022/08/01 04:27:25;;;;;;;73.57;69.67;;;;;;;19.62;100.00;101780.73;2013252;71;30910;-79
2022/08/01 04:33:10;;;;;;;72.07;68.03;;;;;;;19.46;100.00;101790.18;2011821;71;30821;-79
2022/08/01 04:42:05;;;;;;;73.33;69.33;;;;;;;19.43;100.00;101788.82;2055213;69;30539;-77
2022/08/01 04:44:36;;;;;;;72.47;68.37;;;;;;;19.34;100.00;101796.95;1938591;73;24648;-78
2022/08/01 04:50:25;;;;;;;73.73;69.80;;;;;;;19.25;100.00;101796.06;2003687;71;30966;-78
2022/08/01 04:56:12;;;;;;;74.57;70.57;;;;;;;19.42;100.00;101804.06;1993705;71;33331;-79
2022/08/01 05:01:56;;;;;;;74.73;70.50;;;;;;;19.48;100.00;101818.28;2002587;71;30835;-78
2022/08/01 05:07:41;;;;;;;72.47;68.57;;;;;;;19.41;100.00;101823.52;1994894;71;30894;-78
2022/08/01 05:13:25;;;;;;;70.90;66.90;;;;;;;19.36;100.00;101824.22;2000707;71;30823;-77
2022/08/01 05:19:08;;;;;;;72.00;67.97;;;;;;;19.40;100.00;101821.01;2009949;71;30927;-78
2022/08/01 05:24:53;;;;;;;71.53;67.53;;;;;;;19.46;100.00;101819.20;1999667;70;31008;-77
2022/08/01 05:30:41;;;;;;;75.57;71.37;;;;;;;19.64;100.00;101813.06;2005298;71;31412;-78
2022/08/01 05:36:24;;;;;;;72.43;68.47;;;;;;;19.83;100.00;101815.66;2011228;71;31455;-72
2022/08/01 05:42:08;;;;;;;75.10;71.00;;;;;;;19.86;100.00;101814.42;1991538;71;30922;-75
2022/08/01 05:47:52;;;;;;;74.17;70.03;;;;;;;20.03;100.00;101823.54;2000112;71;30905;-75
2022/08/01 05:53:37;;;;;;;71.73;67.83;;;;;;;20.08;100.00;101817.77;2000899;71;30833;-78
2022/08/01 05:59:22;;;;;;;72.93;69.03;;;;;;;20.18;100.00;101820.88;2005096;71;30952;-77
2022/08/01 06:05:08;;;;;;;69.80;66.00;;;;;;;20.04;100.00;101818.73;2009985;70;30871;-78
2022/08/01 06:10:52;;;;;;;69.73;65.87;;;;;;;20.10;100.00;101811.23;2000543;71;30899;-74
2022/08/01 06:16:35;;;;;;;69.43;65.30;;;;;;;20.06;100.00;101814.45;2013246;71;33290;-78
2022/08/01 06:22:22;;;;;;;69.23;65.43;;;;;;;20.16;100.00;101826.00;2006789;71;30884;-74
2022/08/01 06:28:05;;;;;;;68.53;64.63;;;;;;;20.12;100.00;101826.39;2009902;71;33407;-74
2022/08/01 06:33:50;;;;;;;73.77;69.63;;;;;;;20.18;100.00;101830.75;2005944;71;30960;-74
2022/08/01 06:39:35;;;;;;;70.10;66.30;;;;;;;20.18;100.00;101826.52;2006369;71;30927;-78
2022/08/01 06:45:22;;;;;;;71.73;67.77;;;;;;;20.25;100.00;101833.92;2000424;71;30827;-74
2022/08/01 06:56:51;;;;;;;68.57;64.80;;;;;;;20.44;100.00;101841.58;1995332;71;30922;-74
2022/08/01 07:05:42;;;;;;;72.17;68.30;;;;;;;20.39;100.00;101845.95;2060780;69;31039;-77
2022/08/01 07:11:32;;;;;;;70.67;66.97;;;;;;;20.45;100.00;101847.48;2006935;71;31481;-78
2022/08/01 07:17:15;;;;;;;73.17;69.27;;;;;;;20.55;100.00;101847.16;2013905;70;31321;-77
2022/08/01 07:23:00;;;;;;;72.45;68.57;;;;;;;20.63;100.00;101848.33;2015108;71;31011;-78
2022/08/01 07:28:45;;;;;;;69.07;65.47;;;;;;;20.92;100.00;101845.74;2003895;71;30993;-78
2022/08/01 07:34:29;;;;;;;65.67;62.17;;;;;;;21.07;100.00;101844.41;2006177;71;31452;-77
2022/08/01 07:40:14;;;;;;;67.03;63.30;;;;;;;21.24;100.00;101841.03;1991707;71;30845;-75
2022/08/01 07:45:57;;;;;;;65.30;61.90;;;;;;;21.52;100.00;101851.38;1995439;71;30810;-77
2022/08/01 07:51:41;;;;;;;66.00;62.60;;;;;;;21.24;100.00;101860.81;2002853;71;30843;-75
2022/08/01 07:57:27;;;;;;;64.73;61.13;;;;;;;21.05;100.00;101868.74;2015256;71;30974;-73
2022/08/01 08:03:11;;;;;;;67.20;63.57;;;;;;;20.92;100.00;101874.56;1999250;71;31430;-73
2022/08/01 08:08:56;;;;;;;67.97;64.33;;;;;;;20.82;100.00;101873.72;2010102;71;31445;-75
2022/08/01 08:14:39;;;;;;;63.47;59.97;;;;;;;21.20;100.00;101874.53;2013236;71;31061;-75
2022/08/01 08:20:24;;;;;;;64.10;60.80;;;;;;;21.43;100.00;101870.37;2014100;71;31333;-74
2022/08/01 08:26:11;;;;;;;61.88;58.68;;;;;;;21.69;100.00;101860.44;2004070;71;30882;-75
2022/08/01 08:31:55;;;;;;;60.10;56.80;;;;;;;21.93;100.00;101860.73;1997484;71;30939;-76
2022/08/01 08:37:39;;;;;;;54.75;51.75;;;;;;;21.94;100.00;101868.06;2017362;71;31375;-75
2022/08/01 08:43:24;;;;;;;54.18;51.37;;;;;;;22.40;100.00;101870.03;2005819;71;31520;-73
2022/08/01 08:49:09;;;;;;;51.45;48.65;;;;;;;22.84;100.00;101869.23;2000562;71;30883;-75
2022/08/01 08:54:59;;;;;;;48.80;46.08;;;;;;;23.01;100.00;101859.19;2009786;71;31448;-74
2022/08/01 09:03:53;;;;;;;46.37;43.78;;;;;;;22.90;100.00;101863.00;2053385;69;30552;-76
2022/08/01 09:09:38;;;;;;;44.03;41.70;;;;;;;23.35;100.00;101853.81;2004351;71;30900;-76
2022/08/01 09:18:52;;;;;;;43.58;41.28;;;;;;;22.90;100.00;101855.92;2014974;71;31521;-76
2022/08/01 09:24:40;;;;;;;44.18;41.77;;;;;;;23.28;100.00;101852.94;2002561;71;30906;-75
2022/08/01 09:27:14;;;;;;;43.13;40.70;;;;;;;23.34;100.00;101861.48;1976417;72;24263;-76
2022/08/01 09:36:08;;;;;;;41.50;39.10;;;;;;;23.03;100.00;101866.16;2032635;69;30510;-76
2022/08/01 09:41:53;;;;;;;41.73;39.35;;;;;;;22.98;100.00;101861.27;2015216;71;31388;-75
2022/08/01 09:44:27;;;;;;;41.55;39.45;;;;;;;23.00;100.00;101864.61;1985030;72;24257;-77
2022/08/01 09:50:12;;;;;;;40.88;38.78;;;;;;;23.23;100.00;101860.85;2004202;71;30859;-75
2022/08/01 09:59:25;;;;;;;40.65;38.42;;;;;;;23.31;100.00;101870.70;2015010;71;31527;-78
2022/08/01 10:05:12;;;;;;;37.90;35.78;;;;;;;23.28;100.00;101879.88;2009743;71;30983;-75
2022/08/01 10:11:15;;;;;;;36.65;34.55;;;;;;;23.35;100.00;101874.50;2013604;71;31384;-83
2022/08/01 10:17:03;;;;;;;38.88;35.95;;;;;;;23.18;100.00;101880.31;2003370;71;31368;-74
2022/08/01 10:22:50;;;;;;;38.13;35.92;;;;;;;23.19;100.00;101875.48;2009571;71;30843;-74
2022/08/01 10:31:52;;;;;;;34.43;32.63;;;;;;;23.30;100.00;101870.45;1997445;71;30839;-75
2022/08/01 10:37:36;;;;;;;32.98;31.10;;;;;;;23.63;100.00;101858.31;2011629;71;30942;-80
2022/08/01 10:43:20;;;;;;;30.52;28.92;;;;;;;23.67;100.00;101858.69;2009680;70;31402;-82
2022/08/01 10:49:09;;;;;;;30.77;29.18;;;;;;;23.81;100.00;101863.47;2001589;71;30834;-77
2022/08/01 10:58:25;;;;;;;29.15;27.50;;;;;;;23.81;100.00;101858.38;2004319;71;30879;-79
2022/08/01 11:00:59;;;;;;;29.40;27.70;;;;;;;23.72;100.00;101854.80;1981859;72;24159;-79
2022/08/01 11:06:58;;;;;;;30.15;28.30;;;;;;;23.95;100.00;101841.87;2008334;71;30879;-79
2022/08/01 11:12:46;;;;;;;30.05;28.07;;;;;;;23.93;100.00;101854.15;2005859;71;31405;-77
2022/08/01 11:18:34;;;;;;;29.07;27.48;;;;;;;24.12;100.00;101850.17;2000430;71;30970;-78
2022/08/01 11:27:41;;;;;;;26.30;24.90;;;;;;;23.93;100.00;101852.14;2043402;69;30580;-80
2022/08/01 11:30:21;;;;;;;27.65;25.82;;;;;;;23.89;100.00;101849.77;2013389;70;24129;-80
2022/08/01 11:36:11;;;;;;;27.22;25.52;;;;;;;24.17;100.00;101837.20;2010130;70;30858;-79
2022/08/01 11:41:59;;;;;;;26.68;25.17;;;;;;;24.23;100.00;101824.41;2009917;71;30931;-79
2022/08/01 11:47:49;;;;;;;25.97;24.37;;;;;;;24.24;100.00;101825.24;2013342;71;30882;-78
2022/08/01 11:50:23;;;;;;;26.85;25.23;;;;;;;24.08;100.00;101825.09;1966724;72;24148;-79
2022/08/01 11:56:16;;;;;;;26.80;25.40;;;;;;;24.39;100.00;101825.35;2018562;71;30889;-79
2022/08/01 12:05:12;;;;;;;25.30;23.92;;;;;;;24.51;100.00;101816.61;2041076;69;30506;-82
2022/08/01 12:07:44;;;;;;;24.30;22.80;;;;;;;24.53;100.00;101813.63;2022141;70;24585;-79
2022/08/01 12:10:16;;;;;;;25.17;23.80;;;;;;;24.58;100.00;101811.98;2007193;70;24248;-79
2022/08/01 12:12:49;;;;;;;25.68;24.00;;;;;;;24.85;100.00;101814.66;2027126;70;24633;-80
2022/08/01 12:15:21;;;;;;;25.35;23.80;;;;;;;24.65;100.00;101813.61;2017603;70;24226;-78
2022/08/01 12:21:11;;;;;;;22.65;21.45;;;;;;;24.65;100.00;101805.09;2000998;71;30887;-76
2022/08/01 12:26:54;;;;;;;24.95;22.70;;;;;;;24.23;100.00;101807.97;2002870;71;31329;-80
2022/08/01 12:32:50;;;;;;;24.02;22.67;;;;;;;24.52;100.00;101792.70;2004032;71;30967;-80
2022/08/01 12:38:34;;;;;;;22.82;21.33;;;;;;;24.52;100.00;101788.45;1992012;71;31882;-81
2022/08/01 12:44:21;;;;;;;22.82;21.70;;;;;;;24.53;100.00;101779.55;2002184;71;30927;-80
2022/08/01 12:50:09;;;;;;;20.35;19.35;;;;;;;24.38;100.00;101774.02;2007221;71;31854;-83
2022/08/01 12:55:55;;;;;;;18.62;17.60;;;;;;;24.82;100.00;101763.60;2004592;71;31060;-80
2022/08/01 13:01:41;;;;;;;17.35;16.42;;;;;;;24.76;100.00;101765.65;2015470;71;31489;-81
2022/08/01 13:07:26;;;;;;;17.15;16.25;;;;;;;24.62;100.00;101763.78;1995970;71;30853;-81
2022/08/01 13:13:11;;;;;;;16.00;15.20;;;;;;;25.03;100.00;101762.64;2019225;71;31470;-84
2022/08/01 13:19:00;;;;;;;16.20;15.48;;;;;;;24.89;100.00;101761.62;2005698;71;30919;-82
2022/08/01 13:24:43;;;;;;;18.50;17.70;;;;;;;24.71;100.00;101765.89;1999369;71;31343;-82
2022/08/01 13:30:34;;;;;;;14.73;13.93;;;;;;;25.07;100.00;101760.14;2009085;71;31097;-81
2022/08/01 13:42:00;;;;;;;13.35;12.75;;;;;;;24.92;100.00;101749.52;2030716;71;25563;-82
2022/08/01 13:48:05;;;;;;;13.88;13.28;;;;;;;24.85;100.00;101752.99;1998998;71;31793;-82
2022/08/01 13:53:49;;;;;;;13.45;12.75;;;;;;;25.15;100.00;101738.41;1995345;71;31033;-81
2022/08/01 13:59:40;;;;;;;12.10;11.50;;;;;;;25.40;100.00;101731.40;2009779;71;30936;-84
2022/08/01 14:05:29;;;;;;;17.80;13.32;;;;;;;25.56;100.00;101725.16;1995459;71;32272;-82
2022/08/01 14:11:17;;;;;;;11.88;11.28;;;;;;;25.78;100.00;101723.11;1991862;71;31887;-83
2022/08/01 14:17:06;;;;;;;15.03;13.93;;;;;;;25.71;100.00;101725.78;1958723;72;31495;-83
2022/08/01 14:22:51;;;;;;;19.52;17.65;;;;;;;25.67;100.00;101716.29;1999182;71;31953;-77
2022/08/01 14:28:40;;;;;;;21.15;19.45;;;;;;;25.23;100.00;101716.92;2010554;71;31887;-81
2022/08/01 14:34:24;;;;;;;32.40;30.70;;;;;;;25.00;100.00;101717.86;2006589;71;32447;-78
2022/08/01 14:40:12;;;;;;;52.80;49.77;;;;;;;24.83;100.00;101706.17;1998905;71;31015;-80
2022/08/01 14:45:57;;;;;;;53.68;50.23;;;;;;;24.45;100.00;101705.23;2004282;71;30832;-80
2022/08/01 14:51:42;;;;;;;33.08;30.50;;;;;;;24.59;100.00;101694.91;1999987;71;30899;-85
2022/08/01 14:57:28;;;;;;;35.80;33.50;;;;;;;24.79;100.00;101694.70;1999132;71;31371;-81
2022/08/01 15:03:15;;;;;;;28.98;27.27;;;;;;;24.88;100.00;101691.73;2009955;71;31302;-81
2022/08/01 15:09:00;;;;;;;29.00;27.60;;;;;;;24.88;100.00;101692.57;1991579;71;30915;-82
2022/08/01 15:20:32;;;;;;;26.25;24.98;;;;;;;25.00;100.00;101680.90;2000838;71;31349;-83
2022/08/01 15:26:20;;;;;;;24.15;22.65;;;;;;;24.94;100.00;101677.52;2013494;71;31426;-82
2022/08/01 15:32:06;;;;;;;22.90;21.52;;;;;;;24.94;100.00;101671.20;2013103;71;30899;-81
2022/08/01 15:41:08;;;;;;;22.02;20.50;;;;;;;25.06;100.00;101663.23;1999101;71;31015;-79
2022/08/01 15:46:52;;;;;;;16.93;16.02;;;;;;;25.30;100.00;101653.11;2019292;71;31006;-80
2022/08/01 15:52:35;;;;;;;18.55;17.10;;;;;;;25.54;100.00;101657.02;2012096;71;31404;-81
2022/08/01 15:58:21;;;;;;;15.85;15.05;;;;;;;25.33;100.00;101658.66;2009232;71;31940;-77
2022/08/01 16:04:06;;;;;;;15.28;14.45;;;;;;;25.35;100.00;101652.84;2016819;71;32600;-78
2022/08/01 16:09:51;;;;;;;15.32;14.47;;;;;;;25.26;100.00;101653.62;2006851;71;30861;-75
2022/08/01 16:15:35;;;;;;;15.43;14.58;;;;;;;25.42;100.00;101635.72;2005719;71;31399;-76
2022/08/01 16:21:18;;;;;;;14.45;13.58;;;;;;;25.67;100.00;101635.19;1997070;71;30839;-76
2022/08/01 16:33:44;;;;;;;14.58;13.70;;;;;;;25.50;100.00;101641.84;2013266;70;30896;-77
2022/08/01 16:39:29;;;;;;;14.65;13.85;;;;;;;25.40;100.00;101631.84;2016554;71;31873;-77
2022/08/01 16:45:14;;;;;;;14.28;13.58;;;;;;;25.49;100.00;101637.34;2006176;70;30825;-77
2022/08/01 16:50:58;;;;;;;15.23;14.43;;;;;;;25.72;100.00;101629.22;2009466;71;30989;-76
2022/08/01 16:56:44;;;;;;;15.08;14.28;;;;;;;25.55;100.00;101631.61;2002740;71;33262;-77
2022/08/01 17:02:28;;;;;;;15.15;14.35;;;;;;;25.39;100.00;101640.13;2009994;71;30892;-76
2022/08/01 17:08:13;;;;;;;16.30;15.38;;;;;;;25.33;100.00;101635.31;2005840;71;31049;-77
2022/08/01 17:13:57;;;;;;;15.28;14.55;;;;;;;25.27;100.00;101625.41;2009858;71;31477;-76
2022/08/01 17:19:42;;;;;;;15.55;14.65;;;;;;;25.31;100.00;101634.86;2011729;71;31000;-77
2022/08/01 17:25:28;;;;;;;15.90;15.00;;;;;;;25.32;100.00;101635.10;2016886;71;30904;-79
2022/08/01 17:31:12;;;;;;;15.98;14.83;;;;;;;25.23;100.00;101635.88;2016863;71;31044;-76
2022/08/01 17:36:56;;;;;;;16.17;15.18;;;;;;;25.17;100.00;101627.95;2002609;71;30840;-77
2022/08/01 17:42:41;;;;;;;16.37;15.32;;;;;;;25.21;100.00;101638.23;2015209;71;30953;-80
2022/08/01 17:48:28;;;;;;;16.67;15.63;;;;;;;25.07;100.00;101629.94;2008299;71;30887;-74
2022/08/01 17:54:12;;;;;;;17.75;16.70;;;;;;;25.11;100.00;101631.69;1991831;71;31016;-75
2022/08/01 17:59:57;;;;;;;16.93;16.00;;;;;;;25.06;100.00;101630.53;2018947;71;30965;-71
2022/08/01 18:05:43;;;;;;;17.48;15.95;;;;;;;25.14;100.00;101623.02;2005744;71;31152;-73
2022/08/01 18:11:27;;;;;;;18.00;16.80;;;;;;;25.17;100.00;101623.10;2014973;71;30906;-75
2022/08/01 18:17:13;;;;;;;18.52;16.27;;;;;;;25.26;100.00;101629.44;2015248;71;30996;-75
2022/08/01 18:22:56;;;;;;;15.48;14.68;;;;;;;25.21;100.00;101620.34;2008396;71;32374;-76
2022/08/01 18:28:43;;;;;;;15.40;14.35;;;;;;;25.14;100.00;101623.02;1998932;71;31939;-76
2022/08/01 18:34:28;;;;;;;15.65;14.80;;;;;;;25.12;100.00;101623.95;1995590;71;30976;-79
2022/08/01 18:40:13;;;;;;;14.15;13.38;;;;;;;25.14;100.00;101625.86;2004714;71;31806;-76
2022/08/01 18:45:57;;;;;;;14.10;13.30;;;;;;;25.14;100.00;101623.02;2001113;71;30838;-75
2022/08/01 18:51:44;;;;;;;13.40;12.70;;;;;;;25.06;100.00;101633.37;2010266;70;30940;-75
2022/08/01 18:57:29;;;;;;;13.78;12.88;;;;;;;25.01;100.00;101632.22;2006698;71;30898;-74
2022/08/01 19:03:14;;;;;;;12.85;12.25;;;;;;;24.92;100.00;101635.81;2011714;71;32516;-77
2022/08/01 19:08:59;;;;;;;12.45;11.68;;;;;;;24.85;100.00;101631.33;2009872;71;31463;-75
2022/08/01 19:14:44;;;;;;;12.13;11.48;;;;;;;24.75;100.00;101642.63;2006504;70;31317;-77
2022/08/01 19:20:28;;;;;;;11.75;11.18;;;;;;;24.86;100.00;101640.93;1995235;71;30819;-78
2022/08/01 19:26:15;;;;;;;11.40;10.65;;;;;;;24.66;100.00;101641.13;2018578;71;30960;-76
2022/08/01 19:32:05;;;;;;;11.88;11.20;;;;;;;24.71;100.00;101643.12;2014920;70;30939;-75
2022/08/01 19:37:52;;;;;;;11.93;11.28;;;;;;;24.66;100.00;101645.38;2006373;71;30866;-76
2022/08/01 19:43:38;;;;;;;11.60;10.90;;;;;;;24.66;100.00;101643.95;2013392;71;30875;-77
2022/08/01 19:49:23;;;;;;;11.10;10.60;;;;;;;24.36;100.00;101654.25;2015059;71;31353;-77
2022/08/01 19:55:11;;;;;;;11.35;10.85;;;;;;;24.13;100.00;101657.37;1988349;71;30938;-77
2022/08/01 20:00:57;;;;;;;10.90;10.30;;;;;;;24.05;100.00;101656.87;2007922;71;31420;-77
2022/08/01 20:06:43;;;;;;;11.28;10.68;;;;;;;23.98;100.00;101663.76;2006366;71;31006;-73
2022/08/01 20:12:30;;;;;;;11.15;10.58;;;;;;;23.75;100.00;101671.09;1994831;71;30893;-72
2022/08/01 20:18:14;;;;;;;11.28;10.78;;;;;;;23.59;100.00;101683.16;2017064;71;30888;-75
2022/08/01 20:24:01;;;;;;;11.43;10.78;;;;;;;23.87;100.00;101686.13;2017081;71;30947;-73
2022/08/01 20:29:48;;;;;;;11.43;10.72;;;;;;;23.35;100.00;101688.77;2013503;71;30892;-72
2022/08/01 20:35:34;;;;;;;11.50;11.00;;;;;;;23.29;100.00;101690.75;2005792;71;30948;-73
2022/08/01 20:41:21;;;;;;;11.10;10.50;;;;;;;23.10;100.00;101687.06;2013513;71;31027;-75
2022/08/01 20:47:08;;;;;;;11.55;10.98;;;;;;;23.33;100.00;101691.70;2018723;71;31374;-74
2022/08/01 20:52:52;;;;;;;11.30;10.70;;;;;;;23.01;100.00;101694.23;2011628;71;30872;-75
2022/08/01 20:58:45;;;;;;;11.45;10.60;;;;;;;22.99;100.00;101692.32;2018678;71;31372;-76
2022/08/01 21:04:39;;;;;;;12.00;11.40;;;;;;;22.91;100.00;101682.49;2016975;71;31510;-75
2022/08/01 21:10:31;;;;;;;12.37;11.65;;;;;;;22.67;100.00;101683.20;2010016;71;31010;-74
2022/08/01 21:16:23;;;;;;;12.35;11.75;;;;;;;22.59;100.00;101677.83;2009513;71;30972;-74
2022/08/01 21:22:11;;;;;;;12.25;11.50;;;;;;;22.55;100.00;101682.53;2015190;71;31559;-74
2022/08/01 21:28:00;;;;;;;12.13;11.63;;;;;;;22.55;100.00;101691.61;2014868;71;30967;-76
2022/08/01 21:33:47;;;;;;;12.35;11.63;;;;;;;22.52;100.00;101688.89;2003250;71;31450;-78
2022/08/01 21:39:34;;;;;;;12.93;12.23;;;;;;;22.46;100.00;101693.71;2012026;71;31464;-77
2022/08/01 21:45:22;;;;;;;13.05;12.35;;;;;;;22.34;100.00;101687.95;2015299;71;30882;-78
2022/08/01 21:51:10;;;;;;;12.75;12.05;;;;;;;22.24;100.00;101697.12;2013615;71;31368;-77
2022/08/01 21:53:44;;;;;;;13.35;12.70;;;;;;;22.25;100.00;101702.16;1969060;72;24591;-77
2022/08/01 21:59:35;;;;;;;15.53;14.65;;;;;;;22.13;100.00;101703.50;2017057;71;31454;-77
2022/08/01 22:05:24;;;;;;;14.90;14.03;;;;;;;22.02;100.00;101697.42;1999033;71;31354;-77
2022/08/01 22:11:13;;;;;;;15.08;14.33;;;;;;;21.96;100.00;101705.85;2005865;71;31406;-76
2022/08/01 22:16:59;;;;;;;15.55;14.80;;;;;;;21.91;100.00;101703.18;2001121;71;31462;-78
2022/08/01 22:22:44;;;;;;;18.67;17.77;;;;;;;21.85;100.00;101702.31;2009607;71;30932;-76
2022/08/01 22:28:29;;;;;;;16.17;15.30;;;;;;;21.78;100.00;101703.66;2000537;71;31499;-76
2022/08/01 22:34:17;;;;;;;18.37;17.45;;;;;;;21.78;100.00;101698.01;2010429;71;31432;-77
2022/08/01 22:40:04;;;;;;;19.75;18.85;;;;;;;21.71;100.00;101695.47;2000721;71;30847;-76
2022/08/01 22:45:57;;;;;;;17.32;16.48;;;;;;;21.71;100.00;101695.47;2009831;71;31381;-77
2022/08/01 22:48:31;;;;;;;19.35;18.35;;;;;;;21.73;100.00;101711.53;1985202;72;24163;-77
2022/08/01 22:54:21;;;;;;;17.65;16.85;;;;;;;21.74;100.00;101697.61;2009486;71;31036;-77
2022/08/01 22:56:54;;;;;;;18.90;18.00;;;;;;;21.68;100.00;101701.23;1967861;72;24154;-77
2022/08/01 22:59:29;;;;;;;20.15;19.25;;;;;;;21.67;100.00;101694.50;1973164;72;24198;-77
2022/08/01 23:05:17;;;;;;;19.30;18.40;;;;;;;21.60;100.00;101679.48;2010135;71;31329;-77
2022/08/01 23:11:07;;;;;;;22.00;21.03;;;;;;;21.70;100.00;101686.73;2015184;70;30928;-76
2022/08/01 23:16:53;;;;;;;21.55;20.65;;;;;;;21.55;100.00;101674.59;2008213;71;31413;-75
2022/08/01 23:22:40;;;;;;;24.40;23.35;;;;;;;21.48;100.00;101664.41;2016754;71;30892;-75
2022/08/01 23:28:27;;;;;;;25.45;24.25;;;;;;;21.53;100.00;101663.62;2007966;71;31428;-77
2022/08/01 23:34:13;;;;;;;24.10;22.90;;;;;;;21.42;100.00;101662.34;2006483;71;31341;-75
2022/08/01 23:39:57;;;;;;;24.87;23.77;;;;;;;21.45;100.00;101659.41;2001045;71;30918;-76
2022/08/01 23:45:41;;;;;;;29.12;27.75;;;;;;;21.32;100.00;101646.58;2013788;71;31440;-75
2022/08/01 23:51:25;;;;;;;29.35;27.87;;;;;;;21.21;100.00;101644.48;2005971;71;30869;-77
2022/08/01 23:57:09;;;;;;;29.25;27.85;;;;;;;21.23;100.00;101647.77;2011875;71;30893;-77
